sensor_id;sensor_type;location;lat;lon;timestamp;P1;durP1;ratioP1;P2;durP2;ratioP2
22060;SDS011;11194;48.092;-1.382;2023-09-30T00:01:44;21.20;;;19.45;;
22060;SDS011;11194;48.092;-1.382;2023-09-30T00:04:10;22.70;;;20.55;;
22060;SDS011;11194;48.092;-1.382;2023-09-30T00:06:36;24.00;;;22.13;;
22060;SDS011;11194;48.092;-1.382;2023-09-30T00:09:02;24.15;;;22.42;;
22060;SDS011;11194;48.092;-1.382;2023-09-30T00:11:28;25.73;;;23.95;;
22060;SDS011;11194;48.092;-1.382;2023-09-30T00:13:54;28.38;;;25.90;;
22060;SDS011;11194;48.092;-1.382;2023-09-30T00:16:20;27.17;;;25.00;;
22060;SDS011;11194;48.092;-1.382;2023-09-30T00:18:47;29.77;;;27.08;;
22060;SDS011;11194;48.092;-1.382;2023-09-30T00:21:13;27.65;;;25.50;;
22060;SDS011;11194;48.092;-1.382;2023-09-30T00:23:40;28.70;;;25.83;;
22060;SDS011;11194;48.092;-1.382;2023-09-30T00:26:06;29.73;;;27.08;;
22060;SDS011;11194;48.092;-1.382;2023-09-30T00:28:32;25.38;;;23.50;;
22060;SDS011;11194;48.092;-1.382;2023-09-30T00:30:58;23.63;;;22.00;;
22060;SDS011;11194;48.092;-1.382;2023-09-30T00:33:24;27.17;;;25.02;;
22060;SDS011;11194;48.092;-1.382;2023-09-30T00:35:50;28.35;;;26.30;;
22060;SDS011;11194;48.092;-1.382;2023-09-30T00:38:16;25.70;;;23.67;;
22060;SDS011;11194;48.092;-1.382;2023-09-30T00:40:49;21.38;;;19.77;;
22060;SDS011;11194;48.092;-1.382;2023-09-30T00:43:19;24.10;;;22.27;;
22060;SDS011;11194;48.092;-1.382;2023-09-30T00:45:46;22.67;;;21.10;;
22060;SDS011;11194;48.092;-1.382;2023-09-30T00:48:12;23.52;;;20.65;;
22060;SDS011;11194;48.092;-1.382;2023-09-30T00:50:38;24.42;;;22.38;;
22060;SDS011;11194;48.092;-1.382;2023-09-30T00:53:05;21.17;;;19.55;;
22060;SDS011;11194;48.092;-1.382;2023-09-30T00:55:32;18.63;;;17.20;;
22060;SDS011;11194;48.092;-1.382;2023-09-30T00:57:58;19.27;;;17.73;;
22060;SDS011;11194;48.092;-1.382;2023-09-30T01:00:25;17.55;;;16.20;;
22060;SDS011;11194;48.092;-1.382;2023-09-30T01:02:51;21.00;;;17.52;;
22060;SDS011;11194;48.092;-1.382;2023-09-30T01:05:18;15.77;;;14.25;;
22060;SDS011;11194;48.092;-1.382;2023-09-30T01:07:45;15.02;;;13.70;;
22060;SDS011;11194;48.092;-1.382;2023-09-30T01:10:11;14.65;;;13.60;;
22060;SDS011;11194;48.092;-1.382;2023-09-30T01:12:41;16.45;;;15.00;;
22060;SDS011;11194;48.092;-1.382;2023-09-30T01:15:07;17.00;;;15.68;;
22060;SDS011;11194;48.092;-1.382;2023-09-30T01:17:35;17.45;;;16.05;;
22060;SDS011;11194;48.092;-1.382;2023-09-30T01:20:01;17.02;;;15.45;;
22060;SDS011;11194;48.092;-1.382;2023-09-30T01:22:33;16.90;;;15.55;;
22060;SDS011;11194;48.092;-1.382;2023-09-30T01:25:00;16.48;;;15.23;;
22060;SDS011;11194;48.092;-1.382;2023-09-30T01:27:26;16.08;;;14.50;;
22060;SDS011;11194;48.092;-1.382;2023-09-30T01:29:52;14.80;;;13.57;;
22060;SDS011;11194;48.092;-1.382;2023-09-30T01:32:18;17.45;;;15.85;;
22060;SDS011;11194;48.092;-1.382;2023-09-30T01:34:44;19.33;;;17.58;;
22060;SDS011;11194;48.092;-1.382;2023-09-30T01:37:10;20.88;;;18.80;;
22060;SDS011;11194;48.092;-1.382;2023-09-30T01:39:37;16.85;;;15.40;;
22060;SDS011;11194;48.092;-1.382;2023-09-30T01:42:03;17.73;;;14.32;;
22060;SDS011;11194;48.092;-1.382;2023-09-30T01:44:29;15.60;;;14.38;;
22060;SDS011;11194;48.092;-1.382;2023-09-30T01:46:55;17.23;;;13.63;;
22060;SDS011;11194;48.092;-1.382;2023-09-30T01:49:21;13.98;;;12.88;;
22060;SDS011;11194;48.092;-1.382;2023-09-30T01:51:49;16.02;;;14.85;;
22060;SDS011;11194;48.092;-1.382;2023-09-30T01:54:15;15.18;;;13.80;;
22060;SDS011;11194;48.092;-1.382;2023-09-30T01:56:42;14.82;;;13.38;;
22060;SDS011;11194;48.092;-1.382;2023-09-30T01:59:08;14.93;;;12.55;;
22060;SDS011;11194;48.092;-1.382;2023-09-30T02:01:34;15.13;;;13.82;;
22060;SDS011;11194;48.092;-1.382;2023-09-30T02:04:00;16.00;;;11.40;;
22060;SDS011;11194;48.092;-1.382;2023-09-30T02:06:26;15.15;;;12.52;;
22060;SDS011;11194;48.092;-1.382;2023-09-30T02:08:53;14.07;;;12.73;;
22060;SDS011;11194;48.092;-1.382;2023-09-30T02:11:19;15.60;;;14.20;;
22060;SDS011;11194;48.092;-1.382;2023-09-30T02:13:45;15.50;;;14.32;;
22060;SDS011;11194;48.092;-1.382;2023-09-30T02:16:12;17.13;;;15.77;;
22060;SDS011;11194;48.092;-1.382;2023-09-30T02:18:38;17.63;;;15.77;;
22060;SDS011;11194;48.092;-1.382;2023-09-30T02:21:06;15.38;;;13.90;;
22060;SDS011;11194;48.092;-1.382;2023-09-30T02:23:34;14.50;;;13.23;;
22060;SDS011;11194;48.092;-1.382;2023-09-30T02:26:01;14.85;;;13.85;;
22060;SDS011;11194;48.092;-1.382;2023-09-30T02:28:28;14.15;;;13.25;;
22060;SDS011;11194;48.092;-1.382;2023-09-30T02:30:57;12.82;;;11.73;;
22060;SDS011;11194;48.092;-1.382;2023-09-30T02:33:23;15.25;;;13.57;;
22060;SDS011;11194;48.092;-1.382;2023-09-30T02:35:51;15.45;;;14.35;;
22060;SDS011;11194;48.092;-1.382;2023-09-30T02:38:17;17.40;;;15.85;;
22060;SDS011;11194;48.092;-1.382;2023-09-30T02:40:46;15.90;;;14.50;;
22060;SDS011;11194;48.092;-1.382;2023-09-30T02:43:13;15.90;;;14.25;;
22060;SDS011;11194;48.092;-1.382;2023-09-30T02:45:39;13.95;;;12.70;;
22060;SDS011;11194;48.092;-1.382;2023-09-30T02:48:06;13.05;;;11.80;;
22060;SDS011;11194;48.092;-1.382;2023-09-30T02:50:33;18.92;;;13.10;;
22060;SDS011;11194;48.092;-1.382;2023-09-30T02:53:00;14.27;;;13.02;;
22060;SDS011;11194;48.092;-1.382;2023-09-30T02:55:26;15.77;;;14.48;;
22060;SDS011;11194;48.092;-1.382;2023-09-30T02:57:52;14.70;;;13.55;;
22060;SDS011;11194;48.092;-1.382;2023-09-30T03:00:19;15.85;;;14.65;;
22060;SDS011;11194;48.092;-1.382;2023-09-30T03:02:57;19.08;;;17.23;;
22060;SDS011;11194;48.092;-1.382;2023-09-30T03:05:23;18.25;;;16.80;;
22060;SDS011;11194;48.092;-1.382;2023-09-30T03:07:49;19.17;;;17.58;;
22060;SDS011;11194;48.092;-1.382;2023-09-30T03:10:16;18.38;;;16.25;;
22060;SDS011;11194;48.092;-1.382;2023-09-30T03:12:48;17.90;;;16.40;;
22060;SDS011;11194;48.092;-1.382;2023-09-30T03:15:15;20.13;;;17.20;;
22060;SDS011;11194;48.092;-1.382;2023-09-30T03:17:41;19.27;;;17.85;;
22060;SDS011;11194;48.092;-1.382;2023-09-30T03:20:08;18.25;;;16.95;;
22060;SDS011;11194;48.092;-1.382;2023-09-30T03:22:43;18.33;;;16.50;;
22060;SDS011;11194;48.092;-1.382;2023-09-30T03:25:15;18.75;;;17.45;;
22060;SDS011;11194;48.092;-1.382;2023-09-30T03:27:42;18.50;;;16.92;;
22060;SDS011;11194;48.092;-1.382;2023-09-30T03:30:09;20.48;;;18.90;;
22060;SDS011;11194;48.092;-1.382;2023-09-30T03:32:36;21.80;;;19.80;;
22060;SDS011;11194;48.092;-1.382;2023-09-30T03:35:06;23.70;;;22.17;;
22060;SDS011;11194;48.092;-1.382;2023-09-30T03:37:35;22.58;;;20.77;;
22060;SDS011;11194;48.092;-1.382;2023-09-30T03:40:02;27.15;;;21.42;;
22060;SDS011;11194;48.092;-1.382;2023-09-30T03:42:39;26.35;;;24.40;;
22060;SDS011;11194;48.092;-1.382;2023-09-30T03:45:05;24.63;;;23.17;;
22060;SDS011;11194;48.092;-1.382;2023-09-30T03:47:34;26.70;;;24.65;;
22060;SDS011;11194;48.092;-1.382;2023-09-30T03:50:01;25.63;;;23.77;;
22060;SDS011;11194;48.092;-1.382;2023-09-30T03:52:28;26.48;;;24.02;;
22060;SDS011;11194;48.092;-1.382;2023-09-30T03:54:54;22.83;;;21.02;;
22060;SDS011;11194;48.092;-1.382;2023-09-30T03:57:20;22.95;;;21.25;;
22060;SDS011;11194;48.092;-1.382;2023-09-30T03:59:46;24.95;;;23.25;;
22060;SDS011;11194;48.092;-1.382;2023-09-30T04:02:13;21.60;;;19.95;;
22060;SDS011;11194;48.092;-1.382;2023-09-30T04:04:40;18.73;;;16.92;;
22060;SDS011;11194;48.092;-1.382;2023-09-30T04:07:06;20.42;;;19.33;;
22060;SDS011;11194;48.092;-1.382;2023-09-30T04:09:35;24.42;;;22.30;;
22060;SDS011;11194;48.092;-1.382;2023-09-30T04:12:01;23.08;;;21.70;;
22060;SDS011;11194;48.092;-1.382;2023-09-30T04:14:27;26.15;;;24.33;;
22060;SDS011;11194;48.092;-1.382;2023-09-30T04:16:53;29.73;;;28.00;;
22060;SDS011;11194;48.092;-1.382;2023-09-30T04:19:19;30.63;;;28.83;;
22060;SDS011;11194;48.092;-1.382;2023-09-30T04:21:46;35.10;;;33.28;;
22060;SDS011;11194;48.092;-1.382;2023-09-30T04:24:12;35.05;;;32.85;;
22060;SDS011;11194;48.092;-1.382;2023-09-30T04:26:38;33.17;;;30.88;;
22060;SDS011;11194;48.092;-1.382;2023-09-30T04:29:05;32.83;;;30.73;;
22060;SDS011;11194;48.092;-1.382;2023-09-30T04:31:35;32.05;;;30.08;;
22060;SDS011;11194;48.092;-1.382;2023-09-30T04:34:02;29.20;;;27.25;;
22060;SDS011;11194;48.092;-1.382;2023-09-30T04:36:29;33.15;;;30.73;;
22060;SDS011;11194;48.092;-1.382;2023-09-30T04:38:56;33.58;;;31.55;;
22060;SDS011;11194;48.092;-1.382;2023-09-30T04:41:22;37.00;;;34.00;;
22060;SDS011;11194;48.092;-1.382;2023-09-30T04:43:50;45.45;;;42.88;;
22060;SDS011;11194;48.092;-1.382;2023-09-30T04:46:17;38.13;;;36.03;;
22060;SDS011;11194;48.092;-1.382;2023-09-30T04:48:48;39.75;;;37.03;;
22060;SDS011;11194;48.092;-1.382;2023-09-30T04:51:17;34.53;;;32.22;;
22060;SDS011;11194;48.092;-1.382;2023-09-30T04:53:46;33.95;;;31.73;;
22060;SDS011;11194;48.092;-1.382;2023-09-30T04:56:13;33.72;;;31.20;;
22060;SDS011;11194;48.092;-1.382;2023-09-30T04:58:39;32.70;;;30.70;;
22060;SDS011;11194;48.092;-1.382;2023-09-30T05:01:05;28.80;;;27.08;;
22060;SDS011;11194;48.092;-1.382;2023-09-30T05:03:34;28.00;;;25.50;;
22060;SDS011;11194;48.092;-1.382;2023-09-30T05:06:00;25.92;;;23.98;;
22060;SDS011;11194;48.092;-1.382;2023-09-30T05:08:27;28.17;;;26.33;;
22060;SDS011;11194;48.092;-1.382;2023-09-30T05:10:54;27.58;;;25.25;;
22060;SDS011;11194;48.092;-1.382;2023-09-30T05:13:20;24.25;;;22.63;;
22060;SDS011;11194;48.092;-1.382;2023-09-30T05:15:48;25.08;;;23.38;;
22060;SDS011;11194;48.092;-1.382;2023-09-30T05:18:15;23.65;;;22.15;;
22060;SDS011;11194;48.092;-1.382;2023-09-30T05:20:41;21.35;;;19.45;;
22060;SDS011;11194;48.092;-1.382;2023-09-30T05:23:07;22.85;;;20.92;;
22060;SDS011;11194;48.092;-1.382;2023-09-30T05:25:33;21.88;;;20.15;;
22060;SDS011;11194;48.092;-1.382;2023-09-30T05:27:59;22.25;;;20.58;;
22060;SDS011;11194;48.092;-1.382;2023-09-30T05:30:25;22.27;;;20.52;;
22060;SDS011;11194;48.092;-1.382;2023-09-30T05:32:51;21.65;;;20.02;;
22060;SDS011;11194;48.092;-1.382;2023-09-30T05:35:18;21.38;;;19.33;;
22060;SDS011;11194;48.092;-1.382;2023-09-30T05:37:47;22.60;;;20.92;;
22060;SDS011;11194;48.092;-1.382;2023-09-30T05:40:17;21.75;;;20.25;;
22060;SDS011;11194;48.092;-1.382;2023-09-30T05:42:56;22.02;;;20.33;;
22060;SDS011;11194;48.092;-1.382;2023-09-30T05:45:26;23.05;;;21.45;;
22060;SDS011;11194;48.092;-1.382;2023-09-30T05:47:52;24.30;;;22.15;;
22060;SDS011;11194;48.092;-1.382;2023-09-30T05:50:20;25.38;;;23.58;;
22060;SDS011;11194;48.092;-1.382;2023-09-30T05:52:51;22.73;;;21.08;;
22060;SDS011;11194;48.092;-1.382;2023-09-30T05:55:17;25.58;;;23.55;;
22060;SDS011;11194;48.092;-1.382;2023-09-30T05:57:45;26.67;;;24.95;;
22060;SDS011;11194;48.092;-1.382;2023-09-30T06:00:12;26.95;;;24.95;;
22060;SDS011;11194;48.092;-1.382;2023-09-30T06:03:04;27.15;;;25.42;;
22060;SDS011;11194;48.092;-1.382;2023-09-30T06:05:31;29.50;;;27.13;;
22060;SDS011;11194;48.092;-1.382;2023-09-30T06:07:58;27.88;;;25.88;;
22060;SDS011;11194;48.092;-1.382;2023-09-30T06:10:25;29.25;;;27.35;;
22060;SDS011;11194;48.092;-1.382;2023-09-30T06:12:52;28.98;;;27.05;;
22060;SDS011;11194;48.092;-1.382;2023-09-30T06:15:21;27.92;;;26.20;;
22060;SDS011;11194;48.092;-1.382;2023-09-30T06:17:51;30.73;;;28.45;;
22060;SDS011;11194;48.092;-1.382;2023-09-30T06:20:17;27.65;;;25.27;;
22060;SDS011;11194;48.092;-1.382;2023-09-30T06:22:43;25.98;;;24.27;;
22060;SDS011;11194;48.092;-1.382;2023-09-30T06:25:14;29.05;;;26.48;;
22060;SDS011;11194;48.092;-1.382;2023-09-30T06:27:44;27.38;;;24.85;;
22060;SDS011;11194;48.092;-1.382;2023-09-30T06:30:11;29.27;;;27.25;;
22060;SDS011;11194;48.092;-1.382;2023-09-30T06:32:38;27.85;;;25.80;;
22060;SDS011;11194;48.092;-1.382;2023-09-30T06:35:06;28.65;;;26.13;;
22060;SDS011;11194;48.092;-1.382;2023-09-30T06:37:35;29.77;;;27.98;;
22060;SDS011;11194;48.092;-1.382;2023-09-30T06:40:01;28.15;;;26.23;;
22060;SDS011;11194;48.092;-1.382;2023-09-30T06:42:30;26.55;;;24.80;;
22060;SDS011;11194;48.092;-1.382;2023-09-30T06:44:56;26.70;;;24.63;;
22060;SDS011;11194;48.092;-1.382;2023-09-30T06:47:22;25.35;;;23.38;;
22060;SDS011;11194;48.092;-1.382;2023-09-30T06:49:49;22.80;;;21.08;;
22060;SDS011;11194;48.092;-1.382;2023-09-30T06:52:15;23.58;;;21.88;;
22060;SDS011;11194;48.092;-1.382;2023-09-30T06:54:42;22.88;;;21.13;;
22060;SDS011;11194;48.092;-1.382;2023-09-30T06:57:08;20.30;;;18.20;;
22060;SDS011;11194;48.092;-1.382;2023-09-30T06:59:34;19.25;;;17.50;;
22060;SDS011;11194;48.092;-1.382;2023-09-30T07:02:01;19.15;;;17.17;;
22060;SDS011;11194;48.092;-1.382;2023-09-30T07:04:27;22.35;;;16.00;;
22060;SDS011;11194;48.092;-1.382;2023-09-30T07:06:53;13.45;;;11.88;;
22060;SDS011;11194;48.092;-1.382;2023-09-30T07:09:19;13.73;;;10.02;;
22060;SDS011;11194;48.092;-1.382;2023-09-30T07:11:45;12.40;;;11.10;;
22060;SDS011;11194;48.092;-1.382;2023-09-30T07:14:12;13.02;;;11.18;;
22060;SDS011;11194;48.092;-1.382;2023-09-30T07:16:38;15.07;;;8.52;;
22060;SDS011;11194;48.092;-1.382;2023-09-30T07:19:05;9.80;;;4.57;;
22060;SDS011;11194;48.092;-1.382;2023-09-30T07:21:32;9.98;;;4.43;;
22060;SDS011;11194;48.092;-1.382;2023-09-30T07:23:58;8.82;;;3.72;;
22060;SDS011;11194;48.092;-1.382;2023-09-30T07:26:24;8.50;;;4.28;;
22060;SDS011;11194;48.092;-1.382;2023-09-30T07:28:50;7.25;;;3.83;;
22060;SDS011;11194;48.092;-1.382;2023-09-30T07:31:19;10.20;;;3.50;;
22060;SDS011;11194;48.092;-1.382;2023-09-30T07:33:45;10.77;;;4.03;;
22060;SDS011;11194;48.092;-1.382;2023-09-30T07:36:13;9.48;;;3.50;;
22060;SDS011;11194;48.092;-1.382;2023-09-30T07:38:39;11.77;;;3.85;;
22060;SDS011;11194;48.092;-1.382;2023-09-30T07:41:05;9.07;;;4.03;;
22060;SDS011;11194;48.092;-1.382;2023-09-30T07:43:34;13.20;;;4.88;;
22060;SDS011;11194;48.092;-1.382;2023-09-30T07:46:04;15.18;;;4.88;;
22060;SDS011;11194;48.092;-1.382;2023-09-30T07:48:30;9.95;;;4.75;;
22060;SDS011;11194;48.092;-1.382;2023-09-30T07:50:57;9.57;;;4.55;;
22060;SDS011;11194;48.092;-1.382;2023-09-30T07:53:23;9.98;;;4.70;;
22060;SDS011;11194;48.092;-1.382;2023-09-30T07:55:49;10.82;;;5.50;;
22060;SDS011;11194;48.092;-1.382;2023-09-30T07:58:16;10.50;;;5.45;;
22060;SDS011;11194;48.092;-1.382;2023-09-30T08:00:42;12.15;;;4.78;;
22060;SDS011;11194;48.092;-1.382;2023-09-30T08:03:08;11.60;;;4.90;;
22060;SDS011;11194;48.092;-1.382;2023-09-30T08:05:34;11.40;;;4.47;;
22060;SDS011;11194;48.092;-1.382;2023-09-30T08:08:01;11.63;;;4.50;;
22060;SDS011;11194;48.092;-1.382;2023-09-30T08:10:27;13.95;;;4.70;;
22060;SDS011;11194;48.092;-1.382;2023-09-30T08:12:54;9.98;;;4.53;;
22060;SDS011;11194;48.092;-1.382;2023-09-30T08:15:22;10.07;;;4.50;;
22060;SDS011;11194;48.092;-1.382;2023-09-30T08:17:49;10.90;;;4.47;;
22060;SDS011;11194;48.092;-1.382;2023-09-30T08:20:15;13.00;;;4.60;;
22060;SDS011;11194;48.092;-1.382;2023-09-30T08:22:41;13.48;;;4.95;;
22060;SDS011;11194;48.092;-1.382;2023-09-30T08:25:07;12.00;;;5.57;;
22060;SDS011;11194;48.092;-1.382;2023-09-30T08:27:33;16.60;;;6.13;;
22060;SDS011;11194;48.092;-1.382;2023-09-30T08:29:59;18.33;;;7.50;;
22060;SDS011;11194;48.092;-1.382;2023-09-30T08:32:31;15.50;;;6.75;;
22060;SDS011;11194;48.092;-1.382;2023-09-30T08:34:57;15.30;;;8.57;;
22060;SDS011;11194;48.092;-1.382;2023-09-30T08:37:23;20.77;;;9.20;;
22060;SDS011;11194;48.092;-1.382;2023-09-30T08:39:49;18.33;;;9.70;;
22060;SDS011;11194;48.092;-1.382;2023-09-30T08:42:15;19.35;;;9.45;;
22060;SDS011;11194;48.092;-1.382;2023-09-30T08:44:45;21.95;;;10.38;;
22060;SDS011;11194;48.092;-1.382;2023-09-30T08:47:11;11.88;;;7.15;;
22060;SDS011;11194;48.092;-1.382;2023-09-30T08:49:37;13.95;;;6.50;;
22060;SDS011;11194;48.092;-1.382;2023-09-30T08:52:07;13.48;;;5.43;;
22060;SDS011;11194;48.092;-1.382;2023-09-30T08:54:34;9.15;;;4.97;;
22060;SDS011;11194;48.092;-1.382;2023-09-30T08:57:01;12.35;;;4.65;;
22060;SDS011;11194;48.092;-1.382;2023-09-30T08:59:29;9.57;;;4.30;;
22060;SDS011;11194;48.092;-1.382;2023-09-30T09:01:57;6.93;;;4.07;;
22060;SDS011;11194;48.092;-1.382;2023-09-30T09:04:23;12.10;;;4.55;;
22060;SDS011;11194;48.092;-1.382;2023-09-30T09:06:50;12.57;;;4.07;;
22060;SDS011;11194;48.092;-1.382;2023-09-30T09:09:16;9.52;;;3.55;;
22060;SDS011;11194;48.092;-1.382;2023-09-30T09:11:46;7.13;;;3.00;;
22060;SDS011;11194;48.092;-1.382;2023-09-30T09:14:12;10.82;;;3.28;;
22060;SDS011;11194;48.092;-1.382;2023-09-30T09:16:52;9.95;;;3.45;;
22060;SDS011;11194;48.092;-1.382;2023-09-30T09:19:18;10.38;;;4.32;;
22060;SDS011;11194;48.092;-1.382;2023-09-30T09:24:34;8.80;;;3.75;;
22060;SDS011;11194;48.092;-1.382;2023-09-30T09:27:20;8.25;;;3.85;;
22060;SDS011;11194;48.092;-1.382;2023-09-30T09:29:48;13.63;;;4.55;;
22060;SDS011;11194;48.092;-1.382;2023-09-30T09:32:15;7.38;;;3.90;;
22060;SDS011;11194;48.092;-1.382;2023-09-30T09:34:42;14.38;;;3.88;;
22060;SDS011;11194;48.092;-1.382;2023-09-30T09:39:48;10.93;;;4.38;;
22060;SDS011;11194;48.092;-1.382;2023-09-30T09:42:23;9.93;;;3.53;;
22060;SDS011;11194;48.092;-1.382;2023-09-30T09:44:50;10.48;;;4.40;;
22060;SDS011;11194;48.092;-1.382;2023-09-30T09:47:17;10.38;;;4.40;;
22060;SDS011;11194;48.092;-1.382;2023-09-30T09:49:44;8.75;;;3.85;;
22060;SDS011;11194;48.092;-1.382;2023-09-30T09:52:10;10.38;;;3.78;;
22060;SDS011;11194;48.092;-1.382;2023-09-30T09:54:37;13.43;;;4.00;;
22060;SDS011;11194;48.092;-1.382;2023-09-30T09:57:05;7.88;;;4.03;;
22060;SDS011;11194;48.092;-1.382;2023-09-30T09:59:38;7.95;;;3.47;;
22060;SDS011;11194;48.092;-1.382;2023-09-30T10:02:09;12.48;;;4.72;;
22060;SDS011;11194;48.092;-1.382;2023-09-30T10:04:37;13.00;;;4.70;;
22060;SDS011;11194;48.092;-1.382;2023-09-30T10:07:03;9.98;;;4.30;;
22060;SDS011;11194;48.092;-1.382;2023-09-30T10:09:30;13.60;;;5.07;;
22060;SDS011;11194;48.092;-1.382;2023-09-30T10:11:58;13.65;;;5.57;;
22060;SDS011;11194;48.092;-1.382;2023-09-30T10:14:30;15.63;;;5.30;;
22060;SDS011;11194;48.092;-1.382;2023-09-30T10:17:01;15.75;;;5.25;;
22060;SDS011;11194;48.092;-1.382;2023-09-30T10:19:28;14.65;;;5.05;;
22060;SDS011;11194;48.092;-1.382;2023-09-30T10:24:40;12.60;;;4.30;;
22060;SDS011;11194;48.092;-1.382;2023-09-30T10:29:48;12.75;;;5.07;;
22060;SDS011;11194;48.092;-1.382;2023-09-30T10:32:19;12.25;;;4.80;;
22060;SDS011;11194;48.092;-1.382;2023-09-30T10:34:49;14.95;;;5.53;;
22060;SDS011;11194;48.092;-1.382;2023-09-30T10:37:21;16.45;;;4.32;;
22060;SDS011;11194;48.092;-1.382;2023-09-30T10:39:55;14.18;;;4.70;;
22060;SDS011;11194;48.092;-1.382;2023-09-30T10:45:07;9.45;;;4.32;;
22060;SDS011;11194;48.092;-1.382;2023-09-30T10:47:36;16.48;;;5.45;;
22060;SDS011;11194;48.092;-1.382;2023-09-30T10:50:02;11.85;;;4.90;;
22060;SDS011;11194;48.092;-1.382;2023-09-30T10:52:29;13.02;;;4.97;;
22060;SDS011;11194;48.092;-1.382;2023-09-30T10:55:01;12.20;;;4.45;;
22060;SDS011;11194;48.092;-1.382;2023-09-30T10:57:28;10.23;;;4.22;;
22060;SDS011;11194;48.092;-1.382;2023-09-30T11:00:10;13.00;;;4.65;;
22060;SDS011;11194;48.092;-1.382;2023-09-30T11:02:47;10.27;;;4.32;;
22060;SDS011;11194;48.092;-1.382;2023-09-30T11:05:14;16.20;;;5.30;;
22060;SDS011;11194;48.092;-1.382;2023-09-30T11:07:40;13.07;;;4.88;;
22060;SDS011;11194;48.092;-1.382;2023-09-30T11:10:07;10.98;;;4.90;;
22060;SDS011;11194;48.092;-1.382;2023-09-30T11:12:33;15.18;;;5.65;;
22060;SDS011;11194;48.092;-1.382;2023-09-30T11:15:01;14.77;;;4.10;;
22060;SDS011;11194;48.092;-1.382;2023-09-30T11:17:27;10.63;;;4.65;;
22060;SDS011;11194;48.092;-1.382;2023-09-30T11:19:54;12.75;;;4.47;;
22060;SDS011;11194;48.092;-1.382;2023-09-30T11:22:20;10.27;;;4.75;;
22060;SDS011;11194;48.092;-1.382;2023-09-30T11:24:46;15.15;;;5.38;;
22060;SDS011;11194;48.092;-1.382;2023-09-30T11:27:13;16.15;;;4.80;;
22060;SDS011;11194;48.092;-1.382;2023-09-30T11:29:48;9.25;;;4.32;;
22060;SDS011;11194;48.092;-1.382;2023-09-30T11:32:27;21.58;;;9.57;;
22060;SDS011;11194;48.092;-1.382;2023-09-30T11:34:53;15.70;;;5.13;;
22060;SDS011;11194;48.092;-1.382;2023-09-30T11:37:20;13.00;;;5.43;;
22060;SDS011;11194;48.092;-1.382;2023-09-30T11:39:46;13.23;;;5.50;;
22060;SDS011;11194;48.092;-1.382;2023-09-30T11:42:16;16.73;;;5.60;;
22060;SDS011;11194;48.092;-1.382;2023-09-30T11:44:46;11.60;;;4.72;;
22060;SDS011;11194;48.092;-1.382;2023-09-30T11:47:14;11.07;;;4.47;;
22060;SDS011;11194;48.092;-1.382;2023-09-30T11:49:42;13.63;;;6.05;;
22060;SDS011;11194;48.092;-1.382;2023-09-30T11:52:13;14.02;;;7.43;;
22060;SDS011;11194;48.092;-1.382;2023-09-30T11:54:40;29.95;;;14.52;;
22060;SDS011;11194;48.092;-1.382;2023-09-30T11:57:09;9.77;;;4.95;;
22060;SDS011;11194;48.092;-1.382;2023-09-30T11:59:35;10.90;;;4.85;;
22060;SDS011;11194;48.092;-1.382;2023-09-30T12:02:01;15.35;;;6.50;;
22060;SDS011;11194;48.092;-1.382;2023-09-30T12:04:31;16.40;;;7.30;;
22060;SDS011;11194;48.092;-1.382;2023-09-30T12:06:57;10.48;;;5.30;;
22060;SDS011;11194;48.092;-1.382;2023-09-30T12:09:23;12.20;;;5.07;;
22060;SDS011;11194;48.092;-1.382;2023-09-30T12:11:52;14.00;;;5.25;;
22060;SDS011;11194;48.092;-1.382;2023-09-30T12:14:18;14.55;;;5.65;;
22060;SDS011;11194;48.092;-1.382;2023-09-30T12:16:45;10.25;;;4.88;;
22060;SDS011;11194;48.092;-1.382;2023-09-30T12:19:16;13.73;;;5.30;;
22060;SDS011;11194;48.092;-1.382;2023-09-30T12:21:43;11.13;;;4.50;;
22060;SDS011;11194;48.092;-1.382;2023-09-30T12:24:12;10.60;;;5.20;;
22060;SDS011;11194;48.092;-1.382;2023-09-30T12:26:45;14.02;;;5.30;;
22060;SDS011;11194;48.092;-1.382;2023-09-30T12:29:18;11.75;;;5.30;;
22060;SDS011;11194;48.092;-1.382;2023-09-30T12:31:47;11.93;;;5.80;;
22060;SDS011;11194;48.092;-1.382;2023-09-30T12:34:13;13.32;;;5.30;;
22060;SDS011;11194;48.092;-1.382;2023-09-30T12:36:39;10.38;;;5.03;;
22060;SDS011;11194;48.092;-1.382;2023-09-30T12:39:06;12.63;;;5.30;;
22060;SDS011;11194;48.092;-1.382;2023-09-30T12:41:36;11.20;;;5.30;;
22060;SDS011;11194;48.092;-1.382;2023-09-30T12:44:02;12.10;;;5.70;;
22060;SDS011;11194;48.092;-1.382;2023-09-30T12:46:28;11.10;;;5.47;;
22060;SDS011;11194;48.092;-1.382;2023-09-30T12:48:55;13.57;;;5.55;;
22060;SDS011;11194;48.092;-1.382;2023-09-30T12:51:22;10.80;;;5.05;;
22060;SDS011;11194;48.092;-1.382;2023-09-30T12:53:49;11.82;;;5.43;;
22060;SDS011;11194;48.092;-1.382;2023-09-30T12:56:16;12.80;;;5.22;;
22060;SDS011;11194;48.092;-1.382;2023-09-30T12:58:42;14.55;;;5.03;;
22060;SDS011;11194;48.092;-1.382;2023-09-30T13:01:08;10.80;;;4.82;;
22060;SDS011;11194;48.092;-1.382;2023-09-30T13:03:34;12.70;;;5.15;;
22060;SDS011;11194;48.092;-1.382;2023-09-30T13:06:01;16.05;;;6.35;;
22060;SDS011;11194;48.092;-1.382;2023-09-30T13:08:28;15.43;;;6.15;;
22060;SDS011;11194;48.092;-1.382;2023-09-30T13:10:59;13.15;;;5.30;;
22060;SDS011;11194;48.092;-1.382;2023-09-30T13:13:27;10.02;;;5.05;;
22060;SDS011;11194;48.092;-1.382;2023-09-30T13:15:53;13.07;;;5.43;;
22060;SDS011;11194;48.092;-1.382;2023-09-30T13:18:20;12.23;;;5.03;;
22060;SDS011;11194;48.092;-1.382;2023-09-30T13:20:46;11.00;;;5.53;;
22060;SDS011;11194;48.092;-1.382;2023-09-30T13:23:12;8.95;;;5.03;;
22060;SDS011;11194;48.092;-1.382;2023-09-30T13:25:38;12.93;;;4.85;;
22060;SDS011;11194;48.092;-1.382;2023-09-30T13:28:04;11.07;;;5.03;;
22060;SDS011;11194;48.092;-1.382;2023-09-30T13:30:30;14.65;;;5.32;;
22060;SDS011;11194;48.092;-1.382;2023-09-30T13:32:57;14.55;;;5.88;;
22060;SDS011;11194;48.092;-1.382;2023-09-30T13:35:23;13.68;;;5.72;;
22060;SDS011;11194;48.092;-1.382;2023-09-30T13:37:49;9.38;;;5.00;;
22060;SDS011;11194;48.092;-1.382;2023-09-30T13:40:16;13.07;;;5.75;;
22060;SDS011;11194;48.092;-1.382;2023-09-30T13:42:42;11.50;;;4.88;;
22060;SDS011;11194;48.092;-1.382;2023-09-30T13:45:08;10.95;;;5.13;;
22060;SDS011;11194;48.092;-1.382;2023-09-30T13:47:34;13.75;;;5.60;;
22060;SDS011;11194;48.092;-1.382;2023-09-30T13:50:01;15.07;;;6.05;;
22060;SDS011;11194;48.092;-1.382;2023-09-30T13:52:29;12.52;;;5.40;;
22060;SDS011;11194;48.092;-1.382;2023-09-30T13:54:55;13.00;;;5.82;;
22060;SDS011;11194;48.092;-1.382;2023-09-30T13:57:21;12.38;;;5.57;;
22060;SDS011;11194;48.092;-1.382;2023-09-30T13:59:47;15.27;;;5.45;;
22060;SDS011;11194;48.092;-1.382;2023-09-30T14:02:13;11.27;;;5.25;;
22060;SDS011;11194;48.092;-1.382;2023-09-30T14:04:39;10.40;;;5.35;;
22060;SDS011;11194;48.092;-1.382;2023-09-30T14:07:06;17.15;;;5.93;;
22060;SDS011;11194;48.092;-1.382;2023-09-30T14:09:33;11.48;;;5.45;;
22060;SDS011;11194;48.092;-1.382;2023-09-30T14:11:59;9.90;;;4.95;;
22060;SDS011;11194;48.092;-1.382;2023-09-30T14:14:26;13.00;;;6.03;;
22060;SDS011;11194;48.092;-1.382;2023-09-30T14:16:52;13.68;;;6.25;;
22060;SDS011;11194;48.092;-1.382;2023-09-30T14:19:18;9.70;;;5.43;;
22060;SDS011;11194;48.092;-1.382;2023-09-30T14:21:44;13.98;;;5.22;;
22060;SDS011;11194;48.092;-1.382;2023-09-30T14:24:11;11.80;;;5.60;;
22060;SDS011;11194;48.092;-1.382;2023-09-30T14:26:37;10.73;;;5.25;;
22060;SDS011;11194;48.092;-1.382;2023-09-30T14:29:04;14.45;;;5.88;;
22060;SDS011;11194;48.092;-1.382;2023-09-30T14:31:30;14.50;;;5.32;;